Pagina principale
METAR-TAF:

METAR-TAF

Aeroporti :

Sankt Moritz, Svizzera

Aeroporto d'Engadina

latitudine: 46-32-03N, longitudine: 9-53-03E, altezza: 1707 m

Osservazione

Il bollettino è stato emesso 10 minuti fa, alle 10:20 UTC
Vento 1 kt da direzioni variabili
Temperature 9°C
Umidità 46%
Pressione 1021 hPa
Visibilità 10 km o più
nessuna nube inferiore a 1500 m e nessun cumulonembo

METAR: LSZS 211020Z VRB01KT CAVOK 09/M02 Q1021 RMK J

Ora: 12:30 (10:30 UTC)

Previsione

Il bollettino è stato emesso 2 ore e 5 minuti fa, alle 08:25 UTC
Previsione valida dal 21 alle 09 UTC al 21 alle 18 UTC
Vento 3 kt da direzioni variabili
Visibilità 10 km o più
nessuna nube inferiore a 1500 m e nessun cumulonembo

TAF: LSZS 210825Z 2109/2118 VRB03KT CAVOK TX13/2114Z

Osservazioni e previsioni meteorologiche di più di 4000 aeroporti (messaggi METAR e TAF).

Le stazioni disponibili sono rappresentate dai dischi gialli e rossi sulla carta.

Puntare il mouse per vedere il nome della stazione.

Clicca sopra per visualizzare le osservazioni e previsioni meteorologiche.

Per cambiare la mappa : fare clic sui pulsanti verdi con una croce nera per ingrandire, il pulsante verde con un trattino per diminuire, o sulla freccia verde per le mappe adiacenti.


METAR-TAF: